createdAt,value
2016-02-09T00:00:33.457Z,0
2016-02-09T00:01:33.475Z,0
2016-02-09T00:02:33.432Z,0
2016-02-09T00:03:33.341Z,0
2016-02-09T00:04:33.375Z,0
2016-02-09T00:05:33.254Z,0
2016-02-09T00:06:33.177Z,0
2016-02-09T00:07:33.087Z,0
2016-02-09T00:08:33.012Z,0
2016-02-09T00:09:33.061Z,0
2016-02-09T00:10:32.907Z,0
2016-02-09T00:11:32.879Z,0
2016-02-09T00:12:32.663Z,0
2016-02-09T00:13:32.713Z,0
2016-02-09T00:14:32.714Z,0
2016-02-09T00:15:32.609Z,0
2016-02-09T00:16:32.704Z,0
2016-02-09T00:17:32.457Z,0
2016-02-09T00:18:32.429Z,0
2016-02-09T00:19:32.432Z,0
2016-02-09T00:20:32.310Z,0
2016-02-09T00:21:32.282Z,0
2016-02-09T00:22:32.909Z,0
2016-02-09T00:23:32.185Z,0
2016-02-09T00:24:32.126Z,0
2016-02-09T00:25:32.066Z,0
2016-02-09T00:26:32.022Z,0
2016-02-09T00:27:32.027Z,0
2016-02-09T00:28:31.999Z,0
2016-02-09T00:29:31.907Z,0
2016-02-09T00:30:31.832Z,0
2016-02-09T00:31:31.788Z,0
2016-02-09T00:32:31.728Z,0
2016-02-09T00:33:31.606Z,0
2016-02-09T00:34:31.561Z,0
2016-02-09T00:35:31.518Z,0
2016-02-09T00:36:31.567Z,0
2016-02-09T00:37:31.383Z,0
2016-02-09T00:38:31.369Z,0
2016-02-09T00:39:31.294Z,0
2016-02-09T00:40:31.234Z,0
2016-02-09T00:41:31.239Z,0
2016-02-09T00:42:31.133Z,0
2016-02-09T00:43:31.136Z,0
2016-02-09T00:44:31.107Z,0
2016-02-09T00:45:31.064Z,0
2016-02-09T00:46:30.957Z,0
2016-02-09T00:47:30.897Z,0
2016-02-09T00:48:30.791Z,0
2016-02-09T00:49:30.779Z,0
2016-02-09T00:50:30.735Z,0
2016-02-09T00:51:30.690Z,0
2016-02-09T00:52:30.606Z,0
2016-02-09T00:53:30.546Z,0
2016-02-09T00:54:30.518Z,0
2016-02-09T00:55:30.520Z,0
2016-02-09T00:56:30.414Z,0
2016-02-09T00:57:30.339Z,0
2016-02-09T00:58:30.310Z,0
2016-02-09T00:59:30.281Z,0
2016-02-09T01:00:30.174Z,0
2016-02-09T01:01:30.115Z,0
2016-02-09T01:02:30.132Z,0
2016-02-09T01:03:30.027Z,0
2016-02-09T01:04:30.109Z,0
2016-02-09T01:05:29.845Z,0
2016-02-09T01:06:29.941Z,0
2016-02-09T01:07:29.758Z,0
2016-02-09T01:08:29.838Z,0
2016-02-09T01:09:29.856Z,0
2016-02-09T01:10:29.656Z,0
2016-02-09T01:11:29.658Z,0
2016-02-09T01:12:29.583Z,0
2016-02-09T01:13:29.569Z,0
2016-02-09T01:14:29.448Z,0
2016-02-09T01:15:29.388Z,0
2016-02-09T01:16:29.328Z,0
2016-02-09T01:17:29.285Z,0
2016-02-09T01:18:29.287Z,0
2016-02-09T01:19:29.275Z,0
2016-02-09T01:20:29.089Z,0
2016-02-09T01:21:29.045Z,0
2016-02-09T01:22:29.017Z,0
2016-02-09T01:23:28.925Z,0
2016-02-09T01:24:28.835Z,0
2016-02-09T01:25:28.775Z,0
2016-02-09T01:26:28.762Z,0
2016-02-09T01:27:28.734Z,0
2016-02-09T01:28:28.643Z,0
2016-02-09T01:29:28.598Z,0
2016-02-09T01:30:28.571Z,0
2016-02-09T01:31:28.481Z,0
2016-02-09T01:32:28.421Z,0
2016-02-09T01:33:28.361Z,0
2016-02-09T01:34:28.317Z,0
2016-02-09T01:35:28.304Z,0
2016-02-09T01:36:28.229Z,0
2016-02-09T01:37:28.184Z,0
2016-02-09T01:38:27.953Z,0
2016-02-09T01:39:28.051Z,0
2016-02-09T01:40:27.959Z,0
2016-02-09T01:41:27.946Z,0
2016-02-09T01:42:27.886Z,0
2016-02-09T01:43:27.826Z,0
2016-02-09T01:44:27.752Z,0
2016-02-09T01:45:27.708Z,0
2016-02-09T01:46:27.664Z,0
2016-02-09T01:47:27.620Z,0
2016-02-09T01:48:27.514Z,0
2016-02-09T01:49:27.501Z,0
2016-02-09T01:50:27.410Z,0
2016-02-09T01:51:27.412Z,0
2016-02-09T01:52:27.355Z,0
2016-02-09T01:53:27.343Z,0
2016-02-09T01:54:27.267Z,0
2016-02-09T01:55:27.104Z,0
2016-02-09T01:56:27.106Z,0
2016-02-09T01:57:27.046Z,0
2016-02-09T01:58:26.972Z,0
2016-02-09T01:59:26.974Z,0
2016-02-09T02:00:26.869Z,0
2016-02-09T02:01:26.841Z,0
2016-02-09T02:02:26.796Z,0
2016-02-09T02:03:26.721Z,0
2016-02-09T02:04:26.677Z,0
2016-02-09T02:05:26.586Z,0
2016-02-09T02:06:26.557Z,0
2016-02-09T02:07:26.498Z,0
2016-02-09T02:08:26.438Z,0
2016-02-09T02:09:26.393Z,0
2016-02-09T02:10:26.365Z,0
2016-02-09T02:11:26.259Z,0
2016-02-09T02:12:26.229Z,0
2016-02-09T02:13:26.124Z,0
2016-02-09T02:14:26.111Z,0
2016-02-09T02:15:26.131Z,0
2016-02-09T02:16:25.977Z,0
2016-02-09T02:17:25.964Z,0
2016-02-09T02:18:25.888Z,0
2016-02-09T02:19:25.864Z,0
2016-02-09T02:20:25.757Z,0
2016-02-09T02:21:25.713Z,0
2016-02-09T02:22:25.669Z,0
2016-02-09T02:23:25.641Z,0
2016-02-09T02:24:25.419Z,0
2016-02-09T02:25:25.470Z,0
2016-02-09T02:26:25.411Z,0
2016-02-09T02:27:25.447Z,0
2016-02-09T02:28:25.387Z,0
2016-02-09T02:29:25.249Z,0
2016-02-09T02:30:25.268Z,0
2016-02-09T02:31:25.161Z,0
2016-02-09T02:32:25.117Z,0
2016-02-09T02:33:25.074Z,0
2016-02-09T02:34:25.076Z,0
2016-02-09T02:35:24.906Z,0
2016-02-09T02:36:24.956Z,0
2016-02-09T02:37:24.849Z,0
2016-02-09T02:38:24.773Z,0
2016-02-09T02:39:24.729Z,0
2016-02-09T02:40:24.654Z,0
2016-02-09T02:41:24.611Z,0
2016-02-09T02:42:24.567Z,0
2016-02-09T02:43:24.476Z,0
2016-02-09T02:44:24.463Z,0
2016-02-09T02:45:24.466Z,0
2016-02-09T02:46:24.344Z,0
2016-02-09T02:47:24.331Z,0
2016-02-09T02:48:24.302Z,0
2016-02-09T02:49:24.213Z,0
2016-02-09T02:50:24.107Z,0
2016-02-09T02:51:24.078Z,0
2016-02-09T02:52:24.018Z,0
2016-02-09T02:53:23.992Z,0
2016-02-09T02:54:23.916Z,0
2016-02-09T02:55:23.841Z,0
2016-02-09T02:56:23.797Z,0
2016-02-09T02:57:23.753Z,0
2016-02-09T02:58:23.973Z,0
2016-02-09T02:59:23.617Z,0
2016-02-09T03:00:23.479Z,0
2016-02-09T03:01:23.498Z,0
2016-02-09T03:02:23.516Z,0
2016-02-09T03:03:23.458Z,0
2016-02-09T03:04:23.196Z,0
2016-02-09T03:05:23.292Z,0
2016-02-09T03:06:23.263Z,0
2016-02-09T03:07:23.204Z,0
2016-02-09T03:08:23.096Z,0
2016-02-09T03:09:23.193Z,0
2016-02-09T03:10:23.024Z,0
2016-02-09T03:11:22.980Z,0
2016-02-09T03:12:22.968Z,0
2016-02-09T03:13:22.892Z,0
2016-02-09T03:14:22.817Z,0
2016-02-09T03:15:22.772Z,0
2016-02-09T03:16:22.651Z,0
2016-02-09T03:17:22.639Z,0
2016-02-09T03:18:22.642Z,0
2016-02-09T03:19:22.613Z,0
2016-02-09T03:20:22.507Z,0
2016-02-09T03:21:22.432Z,0
2016-02-09T03:22:22.578Z,0
2016-02-09T03:23:22.284Z,0
2016-02-09T03:24:22.301Z,0
2016-02-09T03:25:22.180Z,0
2016-02-09T03:26:22.105Z,0
2016-02-09T03:27:22.108Z,0
2016-02-09T03:28:22.064Z,0
2016-02-09T03:29:21.941Z,0
2016-02-09T03:30:21.991Z,0
2016-02-09T03:31:21.946Z,0
2016-02-09T03:32:21.902Z,0
2016-02-09T03:33:21.827Z,0
2016-02-09T03:34:21.721Z,0
2016-02-09T03:35:21.629Z,0
2016-02-09T03:36:21.570Z,0
2016-02-09T03:37:21.526Z,0
2016-02-09T03:38:21.452Z,0
2016-02-09T03:39:21.423Z,0
2016-02-09T03:40:21.426Z,0
2016-02-09T03:41:21.381Z,0
2016-02-09T03:42:21.275Z,0
2016-02-09T03:43:21.216Z,0
2016-02-09T03:44:21.125Z,0
2016-02-09T03:45:21.112Z,0
2016-02-09T03:46:21.384Z,0
2016-02-09T03:47:20.981Z,0
2016-02-09T03:48:20.952Z,0
2016-02-09T03:49:20.923Z,0
2016-02-09T03:50:20.785Z,0
2016-02-09T03:51:20.788Z,0
2016-02-09T03:52:20.744Z,0
2016-02-09T03:53:20.654Z,0
2016-02-09T03:54:20.656Z,0
2016-02-09T03:55:20.518Z,0
2016-02-09T03:56:20.504Z,0
2016-02-09T03:57:20.445Z,0
2016-02-09T03:58:20.401Z,0
2016-02-09T03:59:20.325Z,0
2016-02-09T04:00:20.254Z,0
2016-02-09T04:01:20.211Z,0
2016-02-09T04:02:20.166Z,0
2016-02-09T04:03:20.122Z,0
2016-02-09T04:04:20.108Z,0
2016-02-09T04:05:20.002Z,0
2016-02-09T04:06:19.926Z,0
2016-02-09T04:07:19.913Z,0
2016-02-09T04:08:19.887Z,0
2016-02-09T04:09:19.812Z,0
2016-02-09T04:10:19.768Z,0
2016-02-09T04:11:19.661Z,0
2016-02-09T04:12:19.664Z,0
2016-02-09T04:13:19.572Z,0
2016-02-09T04:14:19.516Z,0
2016-02-09T04:15:19.472Z,0
2016-02-09T04:17:19.368Z,0
2016-02-09T04:18:19.293Z,0
2016-02-09T04:19:19.312Z,0
2016-02-09T04:20:19.220Z,0
2016-02-09T04:21:19.208Z,0
2016-02-09T04:22:19.102Z,0
2016-02-09T04:23:19.027Z,0
2016-02-09T04:24:18.997Z,0
2016-02-09T04:25:18.938Z,0
2016-02-09T04:26:18.910Z,0
2016-02-09T04:27:18.851Z,0
2016-02-09T04:28:18.792Z,0
2016-02-09T04:29:18.779Z,0
2016-02-09T04:30:18.641Z,0
2016-02-09T04:31:18.643Z,0
2016-02-09T04:32:18.600Z,0
2016-02-09T04:33:18.524Z,0
2016-02-09T04:34:18.465Z,0
2016-02-09T04:35:18.389Z,0
2016-02-09T04:36:18.346Z,0
2016-02-09T04:37:18.271Z,0
2016-02-09T04:38:18.289Z,0
2016-02-09T04:39:18.276Z,0
2016-02-09T04:40:18.404Z,0
2016-02-09T04:41:18.047Z,0
2016-02-09T04:42:18.081Z,0
2016-02-09T04:43:17.943Z,0
2016-02-09T04:44:17.899Z,0
2016-02-09T04:45:17.871Z,0
2016-02-09T04:46:17.811Z,0
2016-02-09T04:47:17.767Z,0
2016-02-09T04:48:17.723Z,0
2016-02-09T04:49:17.617Z,0
2016-02-09T04:50:17.605Z,0
2016-02-09T04:51:17.563Z,0
2016-02-09T04:52:17.472Z,0
2016-02-09T04:53:17.475Z,0
2016-02-09T04:54:17.508Z,0
2016-02-09T04:55:17.324Z,0
2016-02-09T04:56:17.264Z,0
2016-02-09T04:57:17.205Z,0
2016-02-09T04:58:17.161Z,0
2016-02-09T04:59:17.101Z,0
2016-02-09T05:00:17.089Z,0
2016-02-09T05:01:16.966Z,0
2016-02-09T05:02:16.890Z,0
2016-02-09T05:03:16.878Z,0
2016-02-09T05:04:16.944Z,0
2016-02-09T05:05:16.790Z,0
2016-02-09T05:06:16.699Z,0
2016-02-09T05:07:16.733Z,0
2016-02-09T05:08:16.579Z,0
2016-02-09T05:09:16.551Z,0
2016-02-09T05:10:16.632Z,0
2016-02-09T05:11:16.432Z,0
2016-02-09T05:12:16.263Z,0
2016-02-09T05:13:16.359Z,0
2016-02-09T05:14:16.300Z,0
2016-02-09T05:15:15.506Z,0
2016-02-09T05:16:16.179Z,0
2016-02-09T05:17:15.417Z,0
2016-02-09T05:18:16.076Z,0
2016-02-09T05:19:16.079Z,0
2016-02-09T05:20:16.003Z,0
2016-02-09T05:21:15.928Z,0
2016-02-09T05:22:15.840Z,0
2016-02-09T05:23:15.847Z,0
2016-02-09T05:24:15.755Z,0
2016-02-09T05:25:15.727Z,0
2016-02-09T05:26:15.651Z,0
2016-02-09T05:27:15.685Z,0
2016-02-09T05:28:15.532Z,0
2016-02-09T05:29:15.535Z,0
2016-02-09T05:30:15.440Z,0
2016-02-09T05:31:15.381Z,0
2016-02-09T05:32:15.367Z,0
2016-02-09T05:33:15.295Z,0
2016-02-09T05:34:15.203Z,0
2016-02-09T05:35:15.144Z,0
2016-02-09T05:36:15.271Z,0
2016-02-09T05:37:15.180Z,0
2016-02-09T05:38:15.120Z,0
2016-02-09T05:39:14.950Z,0
2016-02-09T05:40:14.891Z,0
2016-02-09T05:41:14.863Z,0
2016-02-09T05:42:14.803Z,0
2016-02-09T05:43:14.727Z,0
2016-02-09T05:44:14.714Z,0
2016-02-09T05:45:14.623Z,0
2016-02-09T05:46:14.563Z,0
2016-02-09T05:47:14.507Z,0
2016-02-09T05:48:14.477Z,0
2016-02-09T05:49:14.479Z,0
2016-02-09T05:50:14.326Z,0
2016-02-09T05:51:14.297Z,0
2016-02-09T05:52:14.254Z,0
2016-02-09T05:53:14.039Z,0
2016-02-09T05:54:14.136Z,0
2016-02-09T05:55:14.200Z,0
2016-02-09T05:56:14.125Z,0
2016-02-09T05:57:13.972Z,0
2016-02-09T05:58:13.959Z,0
2016-02-09T05:59:13.930Z,0
2016-02-09T06:00:13.793Z,0
2016-02-09T06:01:13.812Z,0
2016-02-09T06:02:13.642Z,0
2016-02-09T06:03:13.677Z,0
2016-02-09T06:04:13.633Z,0
2016-02-09T06:05:13.542Z,0
2016-02-09T06:06:13.685Z,0
2016-02-09T06:07:13.442Z,0
2016-02-09T06:08:13.335Z,0
2016-02-09T06:09:13.355Z,0
2016-02-09T06:10:13.373Z,0
2016-02-09T06:11:13.204Z,0
2016-02-09T06:12:13.160Z,0
2016-02-09T06:13:13.100Z,0
2016-02-09T06:14:13.088Z,0
2016-02-09T06:15:12.998Z,0
2016-02-09T06:16:12.938Z,0
2016-02-09T06:17:12.915Z,0
2016-02-09T06:18:12.871Z,0
2016-02-09T06:19:12.797Z,0
2016-02-09T06:20:12.736Z,0
2016-02-09T06:21:12.926Z,0
2016-02-09T06:22:12.608Z,0
2016-02-09T06:23:12.627Z,0
2016-02-09T06:24:12.489Z,0
2016-02-09T06:25:12.460Z,0
2016-02-09T06:26:12.406Z,0
2016-02-09T06:27:12.361Z,0
2016-02-09T06:28:12.317Z,4
2016-02-09T06:29:12.242Z,4
2016-02-09T06:30:12.213Z,4
2016-02-09T06:31:12.202Z,4
2016-02-09T06:32:12.064Z,4
2016-02-09T06:33:12.036Z,4
2016-02-09T06:34:11.961Z,0
2016-02-09T06:35:11.869Z,0
2016-02-09T06:36:11.967Z,0
2016-02-09T06:37:11.813Z,0
2016-02-09T06:38:11.706Z,4
2016-02-09T06:39:11.692Z,0
2016-02-09T06:40:11.618Z,4
2016-02-09T06:41:11.573Z,4
2016-02-09T06:42:11.530Z,4
2016-02-09T06:43:11.454Z,4
2016-02-09T06:44:11.379Z,0
2016-02-09T06:45:11.398Z,0
2016-02-09T06:46:11.292Z,0
2016-02-09T06:47:11.262Z,4
2016-02-09T06:48:11.218Z,0
2016-02-09T06:49:11.128Z,0
2016-02-09T06:50:11.117Z,4
2016-02-09T06:51:11.074Z,4
2016-02-09T06:52:10.842Z,4
2016-02-09T06:53:10.927Z,0
2016-02-09T06:54:10.742Z,4
2016-02-09T06:55:10.823Z,4
2016-02-09T06:56:10.842Z,4
2016-02-09T06:57:10.814Z,4
2016-02-09T06:58:10.850Z,4
2016-02-09T06:59:10.883Z,4
2016-02-09T07:00:10.543Z,4
2016-02-09T07:01:10.467Z,4
2016-02-09T07:02:10.486Z,4
2016-02-09T07:03:10.410Z,4
2016-02-09T07:04:09.975Z,4
2016-02-09T07:05:10.281Z,8
2016-02-09T07:06:10.236Z,4
2016-02-09T07:07:10.428Z,8
2016-02-09T07:08:10.148Z,4
2016-02-09T07:09:10.058Z,8
2016-02-09T07:10:10.044Z,4
2016-02-09T07:11:09.969Z,8
2016-02-09T07:12:09.944Z,4
2016-02-09T07:13:09.869Z,8
2016-02-09T07:14:09.825Z,8
2016-02-09T07:15:09.780Z,8
2016-02-09T07:16:09.721Z,8
2016-02-09T07:17:09.614Z,8
2016-02-09T07:18:09.586Z,8
2016-02-09T07:19:08.620Z,8
2016-02-09T07:20:09.559Z,12
2016-02-09T07:21:09.406Z,12
2016-02-09T07:22:09.487Z,12
2016-02-09T07:23:09.333Z,12
2016-02-09T07:24:09.227Z,12
2016-02-09T07:25:09.266Z,12
2016-02-09T07:26:09.127Z,12
2016-02-09T07:27:09.161Z,16
2016-02-09T07:28:09.039Z,16
2016-02-09T07:29:09.026Z,16
2016-02-09T07:30:09.091Z,12
2016-02-09T07:31:09.063Z,16
2016-02-09T07:32:08.909Z,16
2016-02-09T07:33:08.787Z,16
2016-02-09T07:34:08.806Z,16
2016-02-09T07:35:08.731Z,12
2016-02-09T07:36:08.796Z,16
2016-02-09T07:37:08.736Z,16
2016-02-09T07:38:08.505Z,16
2016-02-09T07:39:08.539Z,16
2016-02-09T07:40:08.401Z,16
2016-02-09T07:41:08.169Z,16
2016-02-09T07:42:08.251Z,12
2016-02-09T07:43:08.223Z,16
2016-02-09T07:44:08.163Z,12
2016-02-09T07:45:08.306Z,12
2016-02-09T07:46:08.075Z,12
2016-02-09T07:47:08.065Z,12
2016-02-09T07:48:08.004Z,12
2016-02-09T07:49:07.962Z,12
2016-02-09T07:50:08.089Z,12
2016-02-09T07:51:07.794Z,12
2016-02-09T07:52:07.734Z,12
2016-02-09T07:55:59.030Z,12
2016-02-09T07:56:30.687Z,12
2016-02-09T07:57:30.673Z,12
2016-02-09T07:58:31.427Z,12
2016-02-09T07:59:30.523Z,12
2016-02-09T08:00:30.478Z,12
2016-02-09T08:01:30.484Z,16
2016-02-09T08:02:30.408Z,12
2016-02-09T08:03:30.365Z,12
2016-02-09T08:04:30.257Z,12
2016-02-09T08:05:30.120Z,12
2016-02-09T08:06:30.248Z,12
2016-02-09T08:07:30.109Z,12
2016-02-09T08:08:30.081Z,8
2016-02-09T08:09:30.023Z,12
2016-02-09T08:10:29.963Z,12
2016-02-09T08:11:29.903Z,12
2016-02-09T08:12:29.844Z,16
2016-02-09T08:13:29.800Z,16
2016-02-09T08:14:29.743Z,16
2016-02-09T08:15:29.653Z,20
2016-02-09T08:16:29.592Z,24
2016-02-09T08:17:29.616Z,28
2016-02-09T08:18:29.633Z,28
2016-02-09T08:19:29.526Z,32
2016-02-09T08:20:29.421Z,28
2016-02-09T08:21:29.363Z,28
2016-02-09T08:22:28.897Z,28
2016-02-09T08:23:29.308Z,28
2016-02-09T08:24:29.217Z,28
2016-02-09T08:25:29.219Z,32
2016-02-09T08:26:29.176Z,32
2016-02-09T08:27:29.053Z,28
2016-02-09T08:28:29.150Z,28
2016-02-09T08:29:29.043Z,32
2016-02-09T08:30:28.889Z,32
2016-02-09T08:31:28.849Z,28
2016-02-09T08:32:28.805Z,24
2016-02-09T08:33:28.839Z,24
2016-02-09T08:34:28.763Z,24
2016-02-09T08:35:28.687Z,28
2016-02-09T08:36:28.566Z,24
2016-02-09T08:37:28.506Z,24
2016-02-09T08:38:28.414Z,20
2016-02-09T08:39:28.402Z,20
2016-02-09T08:40:28.340Z,20
2016-02-09T08:41:28.267Z,20
2016-02-09T08:42:28.195Z,20
2016-02-09T08:43:28.152Z,16
2016-02-09T08:44:28.081Z,16
2016-02-09T08:45:28.090Z,16
2016-02-09T08:46:27.963Z,16
2016-02-09T08:47:28.165Z,20
2016-02-09T08:48:27.943Z,20
2016-02-09T08:49:27.786Z,24
2016-02-09T08:50:27.707Z,24
2016-02-09T08:51:27.694Z,28
2016-02-09T08:52:26.819Z,32
2016-02-09T08:53:27.509Z,32
2016-02-09T08:54:27.495Z,40
2016-02-09T08:55:27.497Z,44
2016-02-09T08:56:27.296Z,52
2016-02-09T08:57:27.376Z,56
2016-02-09T08:58:27.273Z,68
2016-02-09T08:59:27.212Z,88
2016-02-09T09:00:27.246Z,112
2016-02-09T09:01:27.123Z,156
2016-02-09T09:02:27.078Z,156
2016-02-09T09:03:27.003Z,112
2016-02-09T09:04:26.989Z,148
2016-02-09T09:05:26.866Z,184
2016-02-09T09:06:26.838Z,216
2016-02-09T09:07:26.810Z,136
2016-02-09T09:08:26.719Z,168
2016-02-09T09:09:26.706Z,132
2016-02-09T09:10:26.647Z,156
2016-02-09T09:11:26.416Z,192
2016-02-09T09:12:26.511Z,200
2016-02-09T09:13:26.452Z,204
2016-02-09T09:14:26.440Z,200
2016-02-09T09:15:26.397Z,228
2016-02-09T09:16:26.259Z,248
2016-02-09T09:17:26.262Z,244
2016-02-09T09:18:26.224Z,232
2016-02-09T09:19:26.132Z,244
2016-02-09T09:20:26.107Z,248
2016-02-09T09:21:26.046Z,300
2016-02-09T09:22:25.988Z,376
2016-02-09T09:23:25.943Z,416
2016-02-09T09:24:25.882Z,460
2016-02-09T09:25:25.902Z,472
2016-02-09T09:26:25.763Z,420
2016-02-09T09:27:25.797Z,400
2016-02-09T09:28:25.659Z,356
2016-02-09T09:29:25.664Z,308
2016-02-09T09:30:25.620Z,288
2016-02-09T09:31:25.497Z,324
2016-02-09T09:32:25.484Z,292
2016-02-09T09:33:25.472Z,292
2016-02-09T09:34:25.365Z,284
2016-02-09T09:35:25.338Z,164
2016-02-09T09:36:25.324Z,116
2016-02-09T09:37:25.264Z,128
2016-02-09T09:38:25.190Z,152
2016-02-09T09:39:25.114Z,132
2016-02-09T09:40:25.100Z,196
2016-02-09T09:41:25.056Z,264
2016-02-09T09:42:24.998Z,280
2016-02-09T09:43:24.813Z,252
2016-02-09T09:44:24.893Z,164
2016-02-09T09:45:24.802Z,164
2016-02-09T09:46:24.790Z,108
2016-02-09T09:47:24.745Z,92
2016-02-09T09:48:24.681Z,144
2016-02-09T09:49:24.620Z,172
2016-02-09T09:50:24.622Z,188
2016-02-09T09:51:24.547Z,172
2016-02-09T09:52:24.456Z,124
2016-02-09T09:53:24.412Z,128
2016-02-09T09:54:24.477Z,128
2016-02-09T09:55:24.402Z,112
2016-02-09T09:56:24.249Z,112
2016-02-09T09:57:24.220Z,100
2016-02-09T09:58:24.115Z,80
2016-02-09T09:59:24.273Z,84
2016-02-09T10:00:24.072Z,100
2016-02-09T10:01:24.184Z,100
2016-02-09T10:02:23.953Z,76
2016-02-09T10:03:23.955Z,56
2016-02-09T10:04:23.849Z,48
2016-02-09T10:05:24.023Z,44
2016-02-09T10:06:23.761Z,40
2016-02-09T10:07:23.700Z,44
2016-02-09T10:08:23.719Z,36
2016-02-09T10:09:23.722Z,28
2016-02-09T10:10:23.802Z,28
2016-02-09T10:11:23.477Z,32
2016-02-09T10:12:23.417Z,32
2016-02-09T10:13:23.654Z,32
2016-02-09T10:14:23.579Z,32
2016-02-09T10:15:23.284Z,28
2016-02-09T10:16:23.257Z,24
2016-02-09T10:17:23.180Z,24
2016-02-09T10:18:23.121Z,24
2016-02-09T10:19:23.222Z,20
2016-02-09T10:20:23.053Z,20
2016-02-09T10:21:22.867Z,24
2016-02-09T10:22:23.119Z,24
2016-02-09T10:23:22.919Z,28
2016-02-09T10:24:23.078Z,32
2016-02-09T10:25:22.800Z,28
2016-02-09T10:26:23.177Z,24
2016-02-09T10:27:22.680Z,24
2016-02-09T10:28:22.636Z,24
2016-02-09T10:29:22.611Z,24
2016-02-09T10:30:22.739Z,32
2016-02-09T10:31:22.929Z,36
2016-02-09T10:32:22.432Z,36
2016-02-09T10:33:22.388Z,40
2016-02-09T10:34:22.328Z,40
2016-02-09T10:35:22.284Z,44
2016-02-09T10:36:22.192Z,56
2016-02-09T10:37:22.164Z,60
2016-02-09T10:38:22.167Z,48
2016-02-09T10:39:22.139Z,48
2016-02-09T10:40:22.000Z,48
2016-02-09T10:41:21.971Z,56
2016-02-09T10:42:21.788Z,68
2016-02-09T10:43:21.102Z,92
2016-02-09T10:44:21.870Z,72
2016-02-09T10:45:21.844Z,92
2016-02-09T10:46:21.690Z,80
2016-02-09T10:47:21.646Z,84
2016-02-09T10:48:21.602Z,88
2016-02-09T10:49:21.683Z,100
2016-02-09T10:50:21.592Z,96
2016-02-09T10:51:21.434Z,100
2016-02-09T10:52:21.404Z,100
2016-02-09T10:53:21.314Z,88
2016-02-09T10:54:21.285Z,76
2016-02-09T10:55:21.303Z,72
2016-02-09T10:56:21.165Z,64
2016-02-09T10:57:21.184Z,56
2016-02-09T10:58:21.077Z,56
2016-02-09T10:59:21.080Z,68
2016-02-09T11:00:21.020Z,156
2016-02-09T11:01:20.961Z,176
2016-02-09T11:02:20.885Z,172
2016-02-09T11:03:20.810Z,168
2016-02-09T11:04:20.813Z,156
2016-02-09T11:05:20.784Z,136
2016-02-09T11:06:20.631Z,104
2016-02-09T11:07:20.603Z,72
2016-02-09T11:08:20.543Z,48
2016-02-09T11:09:20.499Z,40
2016-02-09T11:10:20.490Z,40
2016-02-09T11:11:20.446Z,40
2016-02-09T11:12:20.355Z,36
2016-02-09T11:13:20.389Z,32
2016-02-09T11:14:20.329Z,32
2016-02-09T11:15:20.192Z,32
2016-02-09T11:16:20.319Z,36
2016-02-09T11:17:20.087Z,36
2016-02-09T11:18:20.078Z,40
2016-02-09T11:19:20.017Z,40
2016-02-09T11:20:19.974Z,40
2016-02-09T11:21:19.899Z,52
2016-02-09T11:22:19.872Z,36
2016-02-09T11:23:19.906Z,40
2016-02-09T11:24:19.815Z,48
2016-02-09T11:25:19.725Z,48
2016-02-09T11:26:19.680Z,52
2016-02-09T11:27:19.620Z,56
2016-02-09T11:28:19.654Z,56
2016-02-09T11:29:19.534Z,56
2016-02-09T11:30:19.692Z,44
2016-02-09T11:31:19.430Z,40
2016-02-09T11:32:19.370Z,44
2016-02-09T11:33:19.342Z,44
2016-02-09T11:34:19.265Z,56
2016-02-09T11:35:19.425Z,56
2016-02-09T11:36:19.225Z,92
2016-02-09T11:37:19.023Z,96
2016-02-09T11:38:19.091Z,116
2016-02-09T11:39:19.000Z,168
2016-02-09T11:40:19.144Z,160
2016-02-09T11:41:18.911Z,124
2016-02-09T11:42:18.867Z,108
2016-02-09T11:43:18.870Z,80
2016-02-09T11:44:18.780Z,64
2016-02-09T11:45:18.829Z,56
2016-02-09T11:46:18.694Z,48
2016-02-09T11:47:18.930Z,44
2016-02-09T11:48:18.590Z,44
2016-02-09T11:49:18.577Z,44
2016-02-09T11:50:18.516Z,40
2016-02-09T11:51:18.416Z,40
2016-02-09T11:52:18.388Z,40
2016-02-09T11:53:18.344Z,44
2016-02-09T11:54:18.272Z,40
2016-02-09T11:55:18.196Z,44
2016-02-09T11:56:18.231Z,40
2016-02-09T11:57:18.108Z,36
2016-02-09T11:58:18.064Z,32
2016-02-09T11:59:18.098Z,36
2016-02-09T12:00:17.976Z,32
2016-02-09T12:01:17.900Z,36
2016-02-09T12:02:17.906Z,32
2016-02-09T12:03:17.846Z,32
2016-02-09T12:04:17.708Z,32
2016-02-09T12:05:17.732Z,32
2016-02-09T12:06:17.782Z,32
2016-02-09T12:07:17.582Z,32
2016-02-09T12:08:17.568Z,28
2016-02-09T12:09:17.556Z,32
2016-02-09T12:10:17.449Z,32
2016-02-09T12:11:17.423Z,28
2016-02-09T12:12:17.364Z,32
2016-02-09T12:13:17.273Z,28
2016-02-09T12:14:17.431Z,32
2016-02-09T12:15:17.653Z,28
2016-02-09T12:16:17.171Z,32
2016-02-09T12:17:17.268Z,28
2016-02-09T12:18:17.067Z,28
2016-02-09T12:19:16.992Z,28
2016-02-09T12:20:16.995Z,24
2016-02-09T12:21:16.987Z,24
2016-02-09T12:22:17.132Z,28
2016-02-09T12:23:16.837Z,28
2016-02-09T12:24:16.762Z,28
2016-02-09T12:25:16.795Z,24
2016-02-09T12:26:16.704Z,24
2016-02-09T12:27:16.445Z,28
2016-02-09T12:28:16.618Z,28
2016-02-09T12:29:16.528Z,28
2016-02-09T12:30:16.488Z,28
2016-02-09T12:31:16.412Z,28
2016-02-09T12:32:16.415Z,24
2016-02-09T12:33:16.465Z,28
2016-02-09T12:34:16.296Z,28
2016-02-09T12:35:16.251Z,28
2016-02-09T12:36:16.177Z,28
2016-02-09T12:37:16.194Z,32
2016-02-09T12:38:16.025Z,28
2016-02-09T12:39:16.105Z,32
2016-02-09T12:40:16.296Z,36
2016-02-09T12:41:15.893Z,36
2016-02-09T12:42:15.848Z,36
2016-02-09T12:43:15.632Z,40
2016-02-09T12:44:15.776Z,40
2016-02-09T12:45:15.747Z,36
2016-02-09T12:46:15.672Z,36
2016-02-09T12:47:15.706Z,36
2016-02-09T12:48:15.568Z,32
2016-02-09T12:49:15.524Z,32
2016-02-09T12:50:15.919Z,32
2016-02-09T12:51:15.406Z,32
2016-02-09T12:52:15.424Z,36
2016-02-09T12:53:15.333Z,32
2016-02-09T12:54:15.273Z,32
2016-02-09T12:55:15.246Z,32
2016-02-09T12:56:15.233Z,32
2016-02-09T12:57:15.157Z,32
2016-02-09T12:58:15.097Z,32
2016-02-09T12:59:15.069Z,32
2016-02-09T13:00:15.212Z,36
2016-02-09T13:01:15.074Z,36
2016-02-09T13:02:14.889Z,36
2016-02-09T13:03:28.971Z,36
2016-02-09T13:04:14.771Z,32
2016-02-09T13:05:14.914Z,32
2016-02-09T13:06:14.667Z,28
2016-02-09T13:07:14.701Z,32
2016-02-09T13:08:14.594Z,32
2016-02-09T13:09:14.550Z,32
2016-02-09T13:10:14.537Z,32
2016-02-09T13:11:14.461Z,32
2016-02-09T13:12:14.448Z,32
2016-02-09T13:13:14.311Z,32
2016-02-09T13:14:14.281Z,28
2016-02-09T13:15:14.269Z,28
2016-02-09T13:16:14.178Z,32
2016-02-09T13:17:14.165Z,28
2016-02-09T13:18:14.043Z,32
2016-02-09T13:19:14.092Z,32
2016-02-09T13:20:13.983Z,36
2016-02-09T13:21:13.986Z,36
2016-02-09T13:22:14.113Z,32
2016-02-09T13:23:13.819Z,32
2016-02-09T13:24:13.884Z,28
2016-02-09T13:25:13.793Z,32
2016-02-09T13:26:12.215Z,32
2016-02-09T13:27:13.689Z,32
2016-02-09T13:28:13.708Z,32
2016-02-09T13:29:13.538Z,32
2016-02-09T13:30:13.572Z,32
2016-02-09T13:31:13.387Z,28
2016-02-09T13:32:13.374Z,28
2016-02-09T13:33:13.393Z,28
2016-02-09T13:34:13.334Z,28
2016-02-09T13:35:13.351Z,24
2016-02-09T13:36:13.527Z,28
2016-02-09T13:37:13.199Z,28
2016-02-09T13:38:13.124Z,28
2016-02-09T13:39:13.082Z,28
2016-02-09T13:40:12.990Z,28
2016-02-09T13:41:13.009Z,28
2016-02-09T13:42:12.901Z,28
2016-02-09T13:43:13.279Z,24
2016-02-09T13:44:12.923Z,28
2016-02-09T13:45:12.910Z,28
2016-02-09T13:46:12.834Z,24
2016-02-09T13:47:12.853Z,28
2016-02-09T13:48:12.624Z,24
2016-02-09T13:49:13.018Z,24
2016-02-09T13:50:12.959Z,20
2016-02-09T13:51:12.836Z,24
2016-02-09T13:52:12.526Z,24
2016-02-09T13:53:12.388Z,24
2016-02-09T13:54:12.562Z,24
2016-02-09T13:55:12.378Z,24
2016-02-09T13:56:12.256Z,24
2016-02-09T13:57:12.181Z,28
2016-02-09T13:58:12.089Z,24
2016-02-09T13:59:12.029Z,28
2016-02-09T14:00:12.031Z,24
2016-02-09T14:01:12.004Z,28
2016-02-09T14:02:11.945Z,28
2016-02-09T14:03:12.119Z,28
2016-02-09T14:04:11.857Z,28
2016-02-09T14:05:11.830Z,28
2016-02-09T14:06:11.769Z,28
2016-02-09T14:07:11.741Z,28
2016-02-09T14:08:11.712Z,28
2016-02-09T14:09:12.182Z,28
2016-02-09T14:10:11.593Z,24
2016-02-09T14:11:11.549Z,24
2016-02-09T14:12:11.488Z,24
2016-02-09T14:13:11.428Z,24
2016-02-09T14:14:11.415Z,24
2016-02-09T14:15:11.372Z,20
2016-02-09T14:16:11.249Z,24
2016-02-09T14:17:11.283Z,24
2016-02-09T14:18:11.021Z,20
2016-02-09T14:19:11.148Z,20
2016-02-09T14:20:11.075Z,20
2016-02-09T14:21:11.014Z,20
2016-02-09T14:22:10.970Z,20
2016-02-09T14:23:10.895Z,20
2016-02-09T14:24:11.147Z,20
2016-02-09T14:25:11.197Z,20
2016-02-09T14:26:11.059Z,20
2016-02-09T14:27:11.094Z,16
2016-02-09T14:28:10.737Z,16
2016-02-09T14:29:10.678Z,16
2016-02-09T14:30:10.556Z,16
2016-02-09T14:31:10.652Z,16